West Drayton, United Kingdom
Current Conditions -  °F | °C
As of 10:50 PM on Monday 24 Nov 2014 (Local Time) from EGLL Reporting Station
Clear Clear  
Wind Chill: 36°   Ceiling: Unl
Heat Index: 36°   Visibility: 6mi
Dew Point: 34°   Wind: 3mph
Humidity: 93%   Direction: 360°N
Pressure: 30.33"   Gusts: NA
Location:  51.5°N, 0.47°W
Report Text: EGLL 242250Z 36003KT CAVOK 02/01 Q1027 TEMPO 4000 BR
Loading
Personal Weather Stations






























Interactive Weather Map New forecast layout! Learn more

10-Day Weather Forecast

Advertisements
Track Severe Weather on mobile